Latest Coastal Weather Observations for Point Perpendicular

IDN60701

Issued at 11:11 am EDT Thursday 2 April 2015 (issued every 10 minutes, with the page automatically refreshed every 10 minutes)

About coastal observations | Map of coastal stations | Coastal observations for NSW | Marine services | Other Formats
Station Details ID: 068151 Name: POINT PERPENDICULAR AWS Lat: -35.09 Lon: 150.80 Height: 85.0 m
Data from the previous 72 hours. | See also: Recent months at Point Perpendicular
Date/Time
EDT
Temp

°C
Wind Pressure Rain
since 9am
mm
Weather Cloud Vis
km
Sea
Height
m
Swell
Dir
 
Speed
knots
Gust
knots
hPa Trend Height
m
Period
s
Dir
02/11:00am 25.3 NNW 9 15 1017.2 - 0.0 - - - - - - -
02/10:30am 24.3 NW 4 6 1017.5 - 0.0 - - - - - - -
02/10:00am 23.1 NNW 3 7 1017.5 - 0.0 - - - - - - -
02/09:30am 22.2 N 4 5 1017.4 - 0.0 - - - - - - -
02/09:00am 22.3 N 5 7 1017.2 - 0.0 - - - - - - -
02/08:30am 20.8 NNW 6 9 1017.0 - 0.0 - - - - - - -
02/08:00am 20.0 N 7 9 1016.5 - 0.0 - - - - - - -
02/07:30am 19.5 N 6 8 1016.4 - 0.0 - - - - - - -
02/07:00am 19.6 N 7 8 1016.1 - 0.0 - - - - - - -
02/06:30am 19.7 N 6 8 1016.1 - 0.0 - - - - - - -
02/06:00am 20.1 N 7 9 1015.9 - 0.0 - - - - - - -
02/05:30am 20.2 N 7 8 1015.8 - 0.0 - - - - - - -
02/05:00am 20.6 N 8 12 1015.8 - 0.0 - - - - - - -
02/04:30am 20.2 N 9 12 1015.9 - 0.0 - - - - - - -
02/04:00am 20.4 N 8 11 1016.1 - 0.0 - - - - - - -
02/03:30am 20.6 N 9 12 1016.3 - 0.0 - - - - - - -
02/03:00am 20.6 N 11 13 1016.5 - 0.0 - - - - - - -
02/02:30am 20.6 N 11 14 1017.0 - 0.0 - - - - - - -
02/02:00am 20.7 N 12 16 1017.3 - 0.0 - - - - - - -
02/01:30am 20.8 N 12 17 1017.6 - 0.0 - - - - - - -
02/01:00am 20.7 N 12 16 1017.8 - 0.0 - - - - - - -
02/12:30am 20.8 N 13 18 1018.1 - 0.0 - - - - - - -
02/12:00am 20.9 NNE 14 21 1018.4 - 0.0 - - - - - - -
 
Date/Time
EDT
Temp

°C
Wind Pressure Rain
since 9am
mm
Weather Cloud Vis
km
Sea
Height
m
Swell
Dir
 
Speed
knots
Gust
knots
hPa Trend Height
m
Period
s
Dir
01/11:30pm 21.0 NNE 15 21 1018.6 - 0.0 - - - - - - -
01/11:00pm 21.1 N 14 21 1018.9 - 0.0 - - - - - - -
01/10:38pm 21.2 NNE 15 25 1019.0 - 0.0 - - - - - - -
01/10:30pm 21.3 N 15 21 1019.1 - 0.0 - - - - - - -
01/10:00pm 21.3 N 15 23 1019.3 - 0.0 - - - - - - -
01/09:30pm 21.4 N 17 23 1019.1 - 0.0 - - - - - - -
01/09:00pm 21.4 NNE 16 24 1019.0 - 0.0 - - - - - - -
01/08:44pm 21.4 NNE 15 25 1019.0 - 0.0 - - - - - - -
01/08:30pm 21.5 NNE 17 25 1018.9 - 0.0 - - - - - - -
01/08:00pm 21.4 NNE 16 26 1018.7 - 0.0 - - - - - - -
01/07:58pm 21.4 NNE 16 26 1018.7 - 0.0 - - - - - - -
01/07:30pm 21.3 NNE 14 21 1018.6 - 0.0 - - - - - - -
01/07:00pm 21.4 NNE 15 22 1018.5 - 0.0 - - - - - - -
01/06:30pm 21.4 NNE 14 19 1018.5 - 0.0 - - - - - - -
01/06:00pm 21.8 NNE 15 23 1018.7 - 0.0 - - - - - - -
01/05:30pm 22.6 NNE 17 23 1018.7 - 0.0 - - - - - - -
01/05:00pm 23.1 NNE 15 23 1018.9 - 0.0 - - - - - - -
01/04:30pm 23.3 NNE 14 23 1019.1 - 0.0 - - - - - - -
01/04:00pm 23.9 NNE 17 23 1019.4 - 0.0 - - - - - - -
01/03:30pm 23.9 NNE 17 24 1019.5 - 0.0 - - - - - - -
01/03:00pm 24.2 NNE 19 25 1019.9 - 0.0 - - - - - - -
01/02:30pm 24.2 NNE 17 23 1020.1 - 0.0 - - - - - - -
01/02:00pm 24.1 NNE 15 21 1020.8 - 0.0 - - - - - - -
01/01:30pm 23.7 NNE 16 24 1021.6 - 0.0 - - - - - - -
01/01:00pm 23.8 NE 15 21 1022.3 - 0.0 - - - - - - -
01/12:30pm 24.1 NNE 13 18 1023.0 - 0.0 - - - - - - -
01/12:00pm 23.1 NNE 13 19 1023.5 - 0.0 - - - - - - -
01/11:30am 23.0 N 12 16 1024.0 - 0.0 - - - - - - -
01/11:00am 22.9 N 10 14 1024.2 - 0.0 - - - - - - -
01/10:30am 20.1 NNW 2 5 1024.6 - 0.0 - - - - - - -
01/10:00am 19.3 N 4 6 1024.9 - 0.0 - - - - - - -
01/09:30am 19.0 N 3 4 1024.9 - 0.0 - - - - - - -
01/09:00am 18.9 N 2 4 1024.6 - 0.8 - - - - - - -
01/08:30am 17.9 NNW 3 4 1024.3 - 0.8 - - - - - - -
01/08:00am 16.7 N 4 5 1024.4 - 0.8 - - - - - - -
01/07:30am 16.1 NW 1 3 1024.1 - 0.8 - - - - - - -
01/07:00am 16.3 NW 4 5 1024.2 - 0.8 - - - - - - -
01/06:30am 16.3 NW 3 4 1024.0 - 0.8 - - - - - - -
01/06:00am 16.6 NW 4 5 1023.9 - 0.8 - - - - - - -
01/05:30am 16.5 NNW 3 4 1024.0 - 0.8 - - - - - - -
01/05:00am 17.1 NW 3 4 1024.0 - 0.8 - - - - - - -
01/04:30am 17.6 NW 3 4 1024.1 - 0.8 - - - - - - -
01/04:00am 17.8 NW 3 4 1024.4 - 0.8 - - - - - - -
01/03:30am 17.8 WNW 4 5 1024.6 - 0.8 - - - - - - -
01/03:00am 17.9 WNW 4 5 1024.6 - 0.8 - - - - - - -
01/02:30am 17.8 CALM 0 0 1024.7 - 0.8 - - - - - - -
01/02:00am 17.9 CALM 0 0 1025.0 - 0.8 - - - - - - -
01/01:30am 18.0 CALM 0 0 1025.2 - 0.8 - - - - - - -
01/01:00am 18.5 CALM 0 0 1025.3 - 0.8 - - - - - - -
01/12:30am 18.6 WNW 3 4 1025.7 - 0.8 - - - - - - -
01/12:00am 18.6 WNW 2 5 1026.0 - 0.8 - - - - - - -
 
Date/Time
EDT
Temp

°C
Wind Pressure Rain
since 9am
mm
Weather Cloud Vis
km
Sea
Height
m
Swell
Dir
 
Speed
knots
Gust
knots
hPa Trend Height
m
Period
s
Dir
31/11:30pm 18.7 WNW 2 3 1026.2 - 0.8 - - - - - - -
31/11:00pm 18.7 WNW 3 4 1026.3 - 0.8 - - - - - - -
31/10:30pm 18.1 N 5 6 1026.1 - 0.8 - - - - - - -
31/10:00pm 18.5 N 5 6 1026.2 - 0.8 - - - - - - -
31/09:30pm 18.7 NNE 5 6 1026.2 - 0.8 - - - - - - -
31/09:00pm 18.8 NNE 5 7 1026.1 - 0.8 - - - - - - -
31/08:30pm 18.6 NNE 6 7 1025.9 - 0.8 - - - - - - -
31/08:00pm 18.9 NNE 5 6 1025.6 - 0.8 - - - - - - -
31/07:30pm 19.3 NNE 6 7 1025.3 - 0.8 - - - - - - -
31/07:00pm 19.9 NNE 6 8 1025.0 - 0.8 - - - - - - -
31/06:30pm 21.0 ENE 6 8 1024.7 - 0.8 - - - - - - -
31/06:00pm 21.5 ENE 4 6 1024.8 - 0.8 - - - - - - -
31/05:30pm 21.3 E 3 5 1024.8 - 0.8 - - - - - - -
31/05:00pm 21.6 SE 4 6 1024.9 - 0.8 - - - - - - -
31/04:30pm 22.1 SE 5 7 1025.1 - 0.8 - - - - - - -
31/04:00pm 22.2 SSE 7 9 1025.2 - 0.8 - - - - - - -
31/03:30pm 22.2 SSE 7 11 1025.5 - 0.8 - - - - - - -
31/03:00pm 21.7 S 8 12 1025.7 - 0.8 - - - - - - -
31/02:30pm 21.5 S 8 12 1026.0 - 0.8 - - - - - - -
31/02:00pm 21.4 SSE 8 12 1026.0 - 0.8 - - - - - - -
31/01:30pm 21.9 S 9 13 1026.4 - 0.8 - - - - - - -
31/01:00pm 21.0 S 8 15 1026.6 - 0.8 - - - - - - -
31/12:30pm 20.7 S 7 11 1027.0 - 0.8 - - - - - - -
31/12:00pm 19.4 S 8 12 1027.5 - 0.8 - - - - - - -
31/11:30am 19.1 SSW 8 13 1027.5 - 0.8 - - - - - - -
31/11:00am 19.8 SSW 7 12 1027.6 - 0.0 - - - - - - -
31/10:30am 19.9 SSW 8 12 1027.5 - 0.0 - - - - - - -
31/10:00am 19.9 SSW 7 13 1027.3 - 0.0 - - - - - - -
31/09:30am 19.7 SW 7 11 1027.1 - 0.0 - - - - - - -
31/09:00am 19.1 SW 7 11 1027.0 - 0.0 - - - - - - -
31/08:30am 18.5 SW 6 8 1026.5 - 0.0 - - - - - - -
31/08:00am 18.5 SW 6 9 1026.2 - 0.0 - - - - - - -
31/07:30am 18.4 SSW 5 8 1025.8 - 0.0 - - - - - - -
31/07:00am 18.7 SW 5 8 1025.4 - 0.0 - - - - - - -
31/06:30am 18.6 SSW 5 7 1025.4 - 0.0 - - - - - - -
31/06:00am 18.5 SW 5 9 1025.0 - 0.0 - - - - - - -
31/05:30am 18.5 SW 5 8 1025.0 - 0.0 - - - - - - -
31/05:00am 18.7 WSW 5 7 1024.9 - 0.0 - - - - - - -
31/04:30am 18.7 WSW 6 7 1024.9 - 0.0 - - - - - - -
31/04:00am 18.8 WSW 5 6 1025.0 - 0.0 - - - - - - -
31/03:30am 18.7 SW 5 6 1025.2 - 0.0 - - - - - - -
31/03:00am 18.7 WSW 3 5 1025.3 - 0.0 - - - - - - -
31/02:30am 19.1 W 3 4 1025.3 - 0.0 - - - - - - -
31/02:00am 19.2 WSW 3 5 1025.5 - 0.0 - - - - - - -
31/01:30am 19.2 SW 3 4 1025.6 - 0.0 - - - - - - -
31/01:00am 19.3 SW 4 5 1025.6 - 0.0 - - - - - - -
31/12:30am 19.6 SW 3 5 1025.7 - 0.0 - - - - - - -
31/12:00am 20.0 SSW 3 4 1025.5 - 0.0 - - - - - - -
 
Date/Time
EDT
Temp

°C
Wind Pressure Rain
since 9am
mm
Weather Cloud Vis
km
Sea
Height
m
Swell
Dir
 
Speed
knots
Gust
knots
hPa Trend Height
m
Period
s
Dir
30/11:30pm 20.0 S 4 5 1025.8 - 0.0 - - - - - - -
30/11:00pm 19.7 S 4 5 1025.7 - 0.0 - - - - - - -
30/10:30pm 19.8 SW 3 3 1025.8 - 0.0 - - - - - - -
30/10:00pm 19.6 SW 3 4 1025.6 - 0.0 - - - - - - -
30/09:30pm 19.7 CALM 0 0 1025.3 - 0.0 - - - - - - -
30/09:00pm 19.3 CALM 0 0 1025.2 - 0.0 - - - - - - -
30/08:30pm 19.2 CALM 0 0 1025.0 - 0.0 - - - - - - -
30/08:00pm 19.1 NNW 4 4 1024.9 - 0.0 - - - - - - -
30/07:30pm 19.4 NW 3 4 1024.5 - 0.0 - - - - - - -
30/07:00pm 20.0 ESE 1 3 1023.9 - 0.0 - - - - - - -
30/06:30pm 20.0 SE 3 5 1023.7 - 0.0 - - - - - - -
30/06:00pm 20.3 CALM 0 0 1023.6 - 0.0 - - - - - - -
30/05:30pm 20.4 S 2 3 1023.3 - 0.0 - - - - - - -
30/05:00pm 20.4 SSE 3 4 1023.1 - 0.0 - - - - - - -
30/04:30pm 20.4 SE 4 6 1022.9 - 0.0 - - - - - - -
30/04:00pm 20.6 SSE 4 6 1023.0 - 0.0 - - - - - - -
30/03:30pm 20.8 SSE 5 7 1023.1 - 0.0 - - - - - - -
30/03:00pm 20.6 SSE 4 6 1023.0 - 0.0 - - - - - - -
30/02:30pm 20.4 S 5 7 1023.1 - 0.0 - - - - - - -
30/02:00pm 20.4 SSW 4 6 1023.4 - 0.0 - - - - - - -
30/01:30pm 20.3 S 4 5 1023.8 - 0.0 - - - - - - -
30/01:00pm 19.9 SSW 4 7 1024.1 - 0.0 - - - - - - -
30/12:30pm 19.6 S 5 7 1024.2 - 0.0 - - - - - - -
30/12:00pm 19.6 S 3 6 1024.6 - 0.0 - - - - - - -
30/11:30am 19.3 SSW 5 7 1024.5 - 0.0 - - - - - - -

Other Formats:

Comma delimited format used in spreadsheet applications
http://www.bom.gov.au/fwo/IDN60701/IDN60701.95940.axf

JavaScript Object Notation format (JSON) in row-major order
http://www.bom.gov.au/fwo/IDN60701/IDN60701.95940.json